首页
METAR-TAF:

METAR-TAF

机场 :

肯皮亞圖爾濟, 罗马尼亚

纬度: 46-30-12N, 经度: 023-53-07E, 海拔: 324米

当前天气观测

该预报发布于10分钟前的05:00 UTC
风速3节,风向西转西南
温度 -3°C
湿度 100%
气压 1034 hPa
能見度: 8000
少量云层高于1000英尺
阴天层高于2400英尺

METAR: LRCT 220500Z 25003KT 8000 FEW010 OVC024 M03/M03 Q1034 WHT WHT

时间: 07:10 (05:10 UTC)

预报

该预报发布于6小时和10分钟前的23:00 UTC
预报有效从22日的 00点(UTC)到 23日的 00点(UTC)
风速3节,风向
能見度: 5000
多云层高于200英尺
阴天层高于2000英尺
轻雾
短暂存在
从 22日的 02点(UTC)到 22日的 06点(UTC)
能見度: 2000
轻雾
成为
从 22日的 08点(UTC)到 22日的 10点(UTC)
能见度10公里或以上
多云层高于3000英尺

TAF: LRCT 212300Z 2200/2300 18003KT 5000 BR BKN002 OVC020 TEMPO 2202/2206 2000 BR BECMG 2208/2210 9999 BKN030

超过4000个机场的气象观测和天气预报(METAR&TAF报告)。

可查询的气象台以黄色和红色小点在地图上表示。

将鼠标移到小点上方,可查看气象台名称。

然后点击查看天气观测和预报。

如需切换地图:点击带黑十字的绿色按钮放大地图;点击带横线的绿色按钮缩小地图;或者点击绿色箭头查看邻近地区的地图。


METAR-TAF: